Flight Track Log - Related Links

Times and Time Zones

All times are in EST time to prevent confusion due to time zone crossing. See the N237AC flight status page for this flight to view local times or setup timezone preferences in your user account.

Time Position Orientation Groundspeed Altitude Reporting Facility
EST Latitude Longitude Course Direction KTS MPH feet Rate Location/Type
Mon 11:18:00 AM 40.8638 -84.9160 118° Southeast  Level Estimated
Mon 11:19:00 AM 40.8447 -84.8696 119° Southeast  Level Estimated
Mon 11:20:00 AM 40.8255 -84.8232 119° Southeast  Level Estimated
Mon 11:21:00 AM 40.8063 -84.7768 119° Southeast  Level Estimated
Mon 11:22:00 AM 40.7870 -84.7304 119° Southeast  Level Estimated
Mon 11:23:00 AM 40.7678 -84.6841 119° Southeast  Level Estimated
Mon 11:24:00 AM 40.7485 -84.6378 119° Southeast  Level Estimated
Mon 11:25:00 AM 40.7292 -84.5916 119° Southeast  Level Estimated
Mon 11:26:00 AM 40.7099 -84.5453 119° Southeast  Level Estimated
Mon 11:27:00 AM 40.6906 -84.4991 119° Southeast  Level Estimated
Mon 11:28:00 AM 40.6713 -84.4529 119° Southeast  Level Estimated
Mon 11:29:00 AM 40.6519 -84.4067 119° Southeast  Level Estimated
Mon 11:30:00 AM 40.6325 -84.3606 119° Southeast  Level Estimated
Mon 11:31:00 AM 40.6132 -84.3145 119° Southeast  Level Estimated
Mon 11:32:00 AM 40.5937 -84.2684 119° Southeast  Level Estimated
Mon 11:33:00 AM 40.5743 -84.2224 119° Southeast  Level Estimated
Mon 11:34:00 AM 40.5549 -84.1763 119° Southeast  Level Estimated
Mon 11:35:00 AM 40.5354 -84.1303 119° Southeast  Level Estimated
Mon 11:36:00 AM 40.5159 -84.0843 119° Southeast  Level Estimated
Mon 11:37:00 AM 40.4964 -84.0384 119° Southeast  Level Estimated
Mon 11:38:00 AM 40.4769 -83.9925 119° Southeast  Level Estimated
Mon 11:39:00 AM 40.4573 -83.9466 119° Southeast  Level Estimated
Mon 11:40:00 AM 40.4378 -83.9007 119° Southeast  Level Estimated
Mon 11:41:00 AM 40.4182 -83.8549 119° Southeast  Level Estimated
Mon 11:42:00 AM 40.3986 -83.8090 119° Southeast  Level Estimated
Mon 11:43:00 AM 40.3790 -83.7633 119° Southeast  Level Estimated
Mon 11:44:00 AM 40.3594 -83.7175 119° Southeast  Level Estimated
Mon 11:45:00 AM 40.3397 -83.6718 119° Southeast  Level Estimated
Mon 11:46:00 AM 40.3200 -83.6260 119° Southeast  Level Estimated
Mon 11:47:00 AM 40.3004 -83.5804 119° Southeast  Level Estimated
Mon 11:48:00 AM 40.2807 -83.5347 119° Southeast  Level Estimated
Mon 11:49:00 AM 40.2609 -83.4891 120° Southeast  Level Estimated
Mon 11:50:00 AM 40.2412 -83.4435 120° Southeast  Level Estimated
Mon 11:51:00 AM 40.2215 -83.3979 120° Southeast  Level Estimated
Mon 11:52:00 AM 40.2017 -83.3523 120° Southeast  Level Estimated
Mon 11:53:00 AM 40.1819 -83.3068 120° Southeast  Level Estimated
Mon 11:54:00 AM 40.1621 -83.2613 120° Southeast  Level Estimated
Mon 11:55:00 AM 40.1423 -83.2159 120° Southeast  Level Estimated
Mon 11:56:00 AM 40.1224 -83.1704 120° Southeast  Level Estimated
Mon 11:57:00 AM 40.1025 -83.1250 120° Southeast  Level Estimated
Mon 11:58:00 AM 40.0827 -83.0796 120° Southeast  Level Estimated
Mon 11:59:00 AM 40.0798 -83.0732 120° Southeast  Level Estimated
Mon 12:00:00 PM 40.0798 -83.0732 305° West  Level Estimated
Mon 12:01:00 PM 40.0798 -83.0732 305° West  Level Estimated
Mon 12:02:00 PM 40.0798 -83.0732 305° West  Level Estimated
Mon 12:03:00 PM 40.0798 -83.0732 305° West  Level Estimated
Mon 12:04:00 PM 40.0798 -83.0732 305° West  Level Estimated
Mon 12:05:00 PM 40.0798 -83.0732 305° West  Level Estimated
Mon 12:06:00 PM 40.0798 -83.0732 305° West  Level Estimated
Mon 12:07:00 PM 40.0798 -83.0732 305° West  Level Estimated
Mon 12:08:00 PM 40.0798 -83.0732 305° West  Level Estimated
Mon 12:09:00 PM 40.0798 -83.0732 305° West  Level Estimated
Mon 12:10:00 PM 40.0798 -83.0732 305° West  Level Estimated
Mon 12:11:00 PM 40.0798 -83.0732 305° West  Level Estimated
Mon 12:12:00 PM 40.0798 -83.0732 305° West  Level Estimated
Mon 12:13:00 PM 40.0798 -83.0732 305° West  Level Estimated
Mon 12:14:00 PM 40.0798 -83.0732 305° West  Level Estimated

Login

Don't have an account? Register now (free) for customized features, flight alerts, and more!